Terminal Aerodrome Forecast
Issued by NWS

Home | Current Version | Previous Version | Text Only | Print | Product List | Glossary On
Versions: 1 2 3 4 5 6 7 8 9 10 11 12 13 14 15
000
FTUS44 KEPZ 280523
TAFLRU
TAF
KLRU 280523Z 2806/2906 VRB05KT P6SM FEW100 SCT150 BKN200
     FM281900 VRB06KT P6SM VCTS SCT070CB SCT150 BKN250
     FM290300 01005KT P6SM SCT100 BKN250=

USA.gov is the U.S. government's official web portal to all federal, state and local government web resources and services.